sensor_id;sensor_type;location;lat;lon;timestamp;pressure;altitude;pressure_sealevel;temperature;humidity
25420;BME280;13354;48.174;11.566;2023-05-10T00:01:03;95116.09;;;15.12;95.96
25420;BME280;13354;48.174;11.566;2023-05-10T00:03:28;95120.75;;;14.93;97.19
25420;BME280;13354;48.174;11.566;2023-05-10T00:05:53;95111.94;;;14.93;98.46
25420;BME280;13354;48.174;11.566;2023-05-10T00:08:19;95121.56;;;14.94;98.41
25420;BME280;13354;48.174;11.566;2023-05-10T00:10:44;95111.03;;;14.99;98.43
25420;BME280;13354;48.174;11.566;2023-05-10T00:13:09;95112.75;;;14.82;100.00
25420;BME280;13354;48.174;11.566;2023-05-10T00:15:35;95113.56;;;14.82;99.86
25420;BME280;13354;48.174;11.566;2023-05-10T00:18:00;95108.13;;;14.89;98.41
25420;BME280;13354;48.174;11.566;2023-05-10T00:20:25;95117.84;;;14.71;98.00
25420;BME280;13354;48.174;11.566;2023-05-10T00:22:50;95105.78;;;14.69;99.21
25420;BME280;13354;48.174;11.566;2023-05-10T00:25:16;95107.09;;;14.66;100.00
25420;BME280;13354;48.174;11.566;2023-05-10T00:27:41;95101.88;;;14.83;98.13
25420;BME280;13354;48.174;11.566;2023-05-10T00:30:06;95103.72;;;14.83;98.66
25420;BME280;13354;48.174;11.566;2023-05-10T00:32:32;95103.25;;;14.86;97.26
25420;BME280;13354;48.174;11.566;2023-05-10T00:34:57;95102.47;;;14.73;98.05
25420;BME280;13354;48.174;11.566;2023-05-10T00:37:22;95102.69;;;14.72;99.11
25420;BME280;13354;48.174;11.566;2023-05-10T00:39:48;95100.25;;;14.70;97.26
25420;BME280;13354;48.174;11.566;2023-05-10T00:42:13;95103.47;;;14.72;99.19
25420;BME280;13354;48.174;11.566;2023-05-10T00:44:38;95096.09;;;14.74;99.67
25420;BME280;13354;48.174;11.566;2023-05-10T00:47:03;95099.66;;;14.68;100.00
25420;BME280;13354;48.174;11.566;2023-05-10T00:49:29;95099.34;;;14.77;100.00
25420;BME280;13354;48.174;11.566;2023-05-10T00:51:54;95097.47;;;14.65;99.07
25420;BME280;13354;48.174;11.566;2023-05-10T00:54:20;95094.94;;;14.59;100.00
25420;BME280;13354;48.174;11.566;2023-05-10T00:56:45;95096.88;;;14.75;99.83
25420;BME280;13354;48.174;11.566;2023-05-10T00:59:14;95087.16;;;14.69;99.85
25420;BME280;13354;48.174;11.566;2023-05-10T01:01:39;95092.03;;;14.60;99.57
25420;BME280;13354;48.174;11.566;2023-05-10T01:04:05;95094.34;;;14.57;100.00
25420;BME280;13354;48.174;11.566;2023-05-10T01:06:30;95087.38;;;14.67;100.00
25420;BME280;13354;48.174;11.566;2023-05-10T01:08:56;95087.03;;;14.64;99.97
25420;BME280;13354;48.174;11.566;2023-05-10T01:11:21;95088.91;;;14.63;99.82
25420;BME280;13354;48.174;11.566;2023-05-10T01:13:47;95096.53;;;14.71;99.20
25420;BME280;13354;48.174;11.566;2023-05-10T01:16:17;95096.66;;;14.65;99.71
25420;BME280;13354;48.174;11.566;2023-05-10T01:18:42;95089.47;;;14.65;97.77
25420;BME280;13354;48.174;11.566;2023-05-10T01:26:31;95080.91;;;14.63;96.84
25420;BME280;13354;48.174;11.566;2023-05-10T01:34:16;95080.38;;;14.43;98.97
25420;BME280;13354;48.174;11.566;2023-05-10T01:36:48;95084.09;;;14.42;99.62
25420;BME280;13354;48.174;11.566;2023-05-10T01:42:08;95089.00;;;14.57;98.20
25420;BME280;13354;48.174;11.566;2023-05-10T01:44:38;95090.75;;;14.51;99.54
25420;BME280;13354;48.174;11.566;2023-05-10T01:49:32;95088.16;;;14.44;98.67
25420;BME280;13354;48.174;11.566;2023-05-10T01:52:00;95093.03;;;14.47;98.36
25420;BME280;13354;48.174;11.566;2023-05-10T01:54:28;95089.44;;;14.42;99.25
25420;BME280;13354;48.174;11.566;2023-05-10T01:57:01;95090.13;;;14.25;99.99
25420;BME280;13354;48.174;11.566;2023-05-10T01:59:31;95085.44;;;14.21;99.45
25420;BME280;13354;48.174;11.566;2023-05-10T02:02:01;95089.41;;;14.30;100.00
25420;BME280;13354;48.174;11.566;2023-05-10T02:04:27;95091.50;;;14.28;100.00
25420;BME280;13354;48.174;11.566;2023-05-10T02:06:52;95088.81;;;14.16;100.00
25420;BME280;13354;48.174;11.566;2023-05-10T02:09:19;95082.59;;;14.22;100.00
25420;BME280;13354;48.174;11.566;2023-05-10T02:11:45;95094.75;;;14.30;100.00
25420;BME280;13354;48.174;11.566;2023-05-10T02:14:12;95092.97;;;14.12;100.00
25420;BME280;13354;48.174;11.566;2023-05-10T02:16:39;95091.81;;;14.20;100.00
25420;BME280;13354;48.174;11.566;2023-05-10T02:19:05;95088.00;;;14.27;99.83
25420;BME280;13354;48.174;11.566;2023-05-10T02:21:33;95086.19;;;14.40;99.54
25420;BME280;13354;48.174;11.566;2023-05-10T02:23:59;95091.63;;;14.33;99.26
25420;BME280;13354;48.174;11.566;2023-05-10T02:26:25;95094.03;;;14.35;100.00
25420;BME280;13354;48.174;11.566;2023-05-10T02:28:51;95091.88;;;14.43;98.23
25420;BME280;13354;48.174;11.566;2023-05-10T02:31:17;95091.63;;;14.33;98.80
25420;BME280;13354;48.174;11.566;2023-05-10T02:33:43;95089.78;;;14.34;98.83
25420;BME280;13354;48.174;11.566;2023-05-10T02:36:09;95095.66;;;14.36;99.04
25420;BME280;13354;48.174;11.566;2023-05-10T02:38:36;95087.34;;;14.44;98.64
25420;BME280;13354;48.174;11.566;2023-05-10T02:41:01;95090.91;;;14.26;99.52
25420;BME280;13354;48.174;11.566;2023-05-10T02:43:29;95090.94;;;14.38;98.72
25420;BME280;13354;48.174;11.566;2023-05-10T02:45:55;95092.78;;;14.37;98.13
25420;BME280;13354;48.174;11.566;2023-05-10T02:48:20;95090.69;;;14.27;98.94
25420;BME280;13354;48.174;11.566;2023-05-10T02:50:45;95096.84;;;14.40;98.62
25420;BME280;13354;48.174;11.566;2023-05-10T02:53:18;95087.47;;;14.37;96.63
25420;BME280;13354;48.174;11.566;2023-05-10T02:55:44;95092.78;;;14.25;99.46
25420;BME280;13354;48.174;11.566;2023-05-10T02:58:14;95095.66;;;14.24;99.05
25420;BME280;13354;48.174;11.566;2023-05-10T03:00:39;95102.63;;;14.37;98.51
25420;BME280;13354;48.174;11.566;2023-05-10T03:03:04;95099.16;;;14.36;97.83
25420;BME280;13354;48.174;11.566;2023-05-10T03:05:30;95089.69;;;14.40;98.22
25420;BME280;13354;48.174;11.566;2023-05-10T03:07:55;95101.31;;;14.27;97.70
25420;BME280;13354;48.174;11.566;2023-05-10T03:10:22;95102.38;;;14.26;98.95
25420;BME280;13354;48.174;11.566;2023-05-10T03:20:51;95109.09;;;14.29;97.93
25420;BME280;13354;48.174;11.566;2023-05-10T03:25:43;95106.28;;;14.12;99.64
25420;BME280;13354;48.174;11.566;2023-05-10T03:28:09;95110.78;;;14.12;98.68
25420;BME280;13354;48.174;11.566;2023-05-10T03:30:34;95115.06;;;14.13;99.77
25420;BME280;13354;48.174;11.566;2023-05-10T03:33:06;95118.69;;;14.18;98.78
25420;BME280;13354;48.174;11.566;2023-05-10T03:35:31;95119.94;;;14.16;98.24
25420;BME280;13354;48.174;11.566;2023-05-10T03:37:57;95116.81;;;14.07;100.00
25420;BME280;13354;48.174;11.566;2023-05-10T03:40:22;95120.47;;;13.94;100.00
25420;BME280;13354;48.174;11.566;2023-05-10T03:42:48;95117.63;;;14.08;100.00
25420;BME280;13354;48.174;11.566;2023-05-10T03:45:13;95123.75;;;14.08;100.00
25420;BME280;13354;48.174;11.566;2023-05-10T03:47:38;95125.28;;;14.16;100.00
25420;BME280;13354;48.174;11.566;2023-05-10T03:50:03;95123.63;;;14.03;100.00
25420;BME280;13354;48.174;11.566;2023-05-10T03:52:29;95128.13;;;14.02;100.00
25420;BME280;13354;48.174;11.566;2023-05-10T03:54:54;95126.41;;;14.08;100.00
25420;BME280;13354;48.174;11.566;2023-05-10T03:57:19;95124.88;;;14.00;100.00
25420;BME280;13354;48.174;11.566;2023-05-10T03:59:44;95123.88;;;13.83;100.00
25420;BME280;13354;48.174;11.566;2023-05-10T04:02:10;95129.72;;;13.92;100.00
25420;BME280;13354;48.174;11.566;2023-05-10T04:04:35;95134.31;;;13.85;100.00
25420;BME280;13354;48.174;11.566;2023-05-10T04:07:00;95131.00;;;14.01;100.00
25420;BME280;13354;48.174;11.566;2023-05-10T04:09:26;95131.81;;;14.01;100.00
25420;BME280;13354;48.174;11.566;2023-05-10T04:11:51;95133.06;;;13.99;100.00
25420;BME280;13354;48.174;11.566;2023-05-10T04:14:16;95133.66;;;14.01;100.00
25420;BME280;13354;48.174;11.566;2023-05-10T04:16:41;95135.31;;;14.14;100.00
25420;BME280;13354;48.174;11.566;2023-05-10T04:19:06;95128.81;;;14.10;100.00
25420;BME280;13354;48.174;11.566;2023-05-10T04:21:32;95138.69;;;14.21;100.00
25420;BME280;13354;48.174;11.566;2023-05-10T04:23:57;95134.63;;;14.07;100.00
25420;BME280;13354;48.174;11.566;2023-05-10T04:26:23;95130.78;;;14.02;100.00
25420;BME280;13354;48.174;11.566;2023-05-10T04:28:48;95132.53;;;14.09;100.00
25420;BME280;13354;48.174;11.566;2023-05-10T04:31:14;95138.66;;;14.09;100.00
25420;BME280;13354;48.174;11.566;2023-05-10T04:33:39;95138.47;;;14.11;100.00
25420;BME280;13354;48.174;11.566;2023-05-10T04:36:05;95138.31;;;14.06;100.00
25420;BME280;13354;48.174;11.566;2023-05-10T04:38:30;95141.56;;;14.08;100.00
25420;BME280;13354;48.174;11.566;2023-05-10T04:41:08;95143.22;;;14.20;100.00
25420;BME280;13354;48.174;11.566;2023-05-10T04:43:34;95135.44;;;14.07;100.00
25420;BME280;13354;48.174;11.566;2023-05-10T04:45:59;95145.00;;;13.96;100.00
25420;BME280;13354;48.174;11.566;2023-05-10T04:48:24;95142.34;;;13.96;100.00
25420;BME280;13354;48.174;11.566;2023-05-10T04:50:49;95140.59;;;14.02;100.00
25420;BME280;13354;48.174;11.566;2023-05-10T04:53:15;95147.75;;;13.90;100.00
25420;BME280;13354;48.174;11.566;2023-05-10T04:55:40;95150.78;;;13.93;100.00
25420;BME280;13354;48.174;11.566;2023-05-10T04:58:05;95159.28;;;13.84;100.00
25420;BME280;13354;48.174;11.566;2023-05-10T05:00:30;95162.19;;;13.82;100.00
25420;BME280;13354;48.174;11.566;2023-05-10T05:02:56;95152.28;;;13.71;100.00
25420;BME280;13354;48.174;11.566;2023-05-10T05:05:21;95157.81;;;13.69;100.00
25420;BME280;13354;48.174;11.566;2023-05-10T05:07:46;95168.41;;;13.58;100.00
25420;BME280;13354;48.174;11.566;2023-05-10T05:10:11;95171.44;;;13.61;100.00
25420;BME280;13354;48.174;11.566;2023-05-10T05:12:37;95182.50;;;13.58;100.00
25420;BME280;13354;48.174;11.566;2023-05-10T05:15:02;95179.03;;;13.58;100.00
25420;BME280;13354;48.174;11.566;2023-05-10T05:17:29;95183.56;;;13.57;100.00
25420;BME280;13354;48.174;11.566;2023-05-10T05:19:54;95190.84;;;13.62;100.00
25420;BME280;13354;48.174;11.566;2023-05-10T05:22:20;95190.50;;;13.58;100.00
25420;BME280;13354;48.174;11.566;2023-05-10T05:24:51;95187.69;;;13.53;100.00
25420;BME280;13354;48.174;11.566;2023-05-10T05:27:17;95188.00;;;13.63;100.00
25420;BME280;13354;48.174;11.566;2023-05-10T05:29:42;95200.13;;;13.41;100.00
25420;BME280;13354;48.174;11.566;2023-05-10T05:32:07;95215.91;;;13.36;100.00
25420;BME280;13354;48.174;11.566;2023-05-10T05:34:33;95203.50;;;13.29;100.00
25420;BME280;13354;48.174;11.566;2023-05-10T05:36:58;95209.84;;;13.28;100.00
25420;BME280;13354;48.174;11.566;2023-05-10T05:39:23;95220.03;;;13.32;100.00
25420;BME280;13354;48.174;11.566;2023-05-10T05:41:48;95214.38;;;13.21;98.92
25420;BME280;13354;48.174;11.566;2023-05-10T05:44:14;95222.13;;;13.29;99.85
25420;BME280;13354;48.174;11.566;2023-05-10T05:46:39;95215.22;;;13.22;99.10
25420;BME280;13354;48.174;11.566;2023-05-10T05:49:04;95216.34;;;13.33;98.19
25420;BME280;13354;48.174;11.566;2023-05-10T05:51:30;95219.00;;;13.33;98.89
25420;BME280;13354;48.174;11.566;2023-05-10T05:53:55;95218.50;;;13.42;99.00
25420;BME280;13354;48.174;11.566;2023-05-10T05:56:21;95215.41;;;13.45;98.57
25420;BME280;13354;48.174;11.566;2023-05-10T05:58:49;95221.53;;;13.46;98.42
25420;BME280;13354;48.174;11.566;2023-05-10T06:01:15;95226.47;;;13.42;99.41
25420;BME280;13354;48.174;11.566;2023-05-10T06:03:40;95232.91;;;13.53;98.35
25420;BME280;13354;48.174;11.566;2023-05-10T06:06:05;95230.31;;;13.65;98.59
25420;BME280;13354;48.174;11.566;2023-05-10T06:08:30;95231.00;;;13.60;98.45
25420;BME280;13354;48.174;11.566;2023-05-10T06:10:56;95243.63;;;13.65;99.32
25420;BME280;13354;48.174;11.566;2023-05-10T06:13:21;95244.00;;;13.68;98.91
25420;BME280;13354;48.174;11.566;2023-05-10T06:15:46;95239.16;;;13.77;98.69
25420;BME280;13354;48.174;11.566;2023-05-10T06:18:11;95245.34;;;13.77;99.57
25420;BME280;13354;48.174;11.566;2023-05-10T06:20:36;95244.34;;;13.72;98.72
25420;BME280;13354;48.174;11.566;2023-05-10T06:23:02;95257.78;;;13.77;99.24
25420;BME280;13354;48.174;11.566;2023-05-10T06:25:27;95253.94;;;13.91;99.53
25420;BME280;13354;48.174;11.566;2023-05-10T06:27:52;95263.84;;;14.02;97.98
25420;BME280;13354;48.174;11.566;2023-05-10T06:30:22;95262.75;;;14.10;97.00
25420;BME280;13354;48.174;11.566;2023-05-10T06:32:52;95266.84;;;14.24;96.12
25420;BME280;13354;48.174;11.566;2023-05-10T06:35:17;95272.19;;;14.24;95.62
25420;BME280;13354;48.174;11.566;2023-05-10T06:37:42;95271.81;;;14.21;94.96
25420;BME280;13354;48.174;11.566;2023-05-10T06:40:08;95276.28;;;14.09;94.15
25420;BME280;13354;48.174;11.566;2023-05-10T06:42:34;95275.31;;;14.21;94.03
25420;BME280;13354;48.174;11.566;2023-05-10T06:44:59;95266.47;;;14.21;94.17
25420;BME280;13354;48.174;11.566;2023-05-10T06:47:24;95264.91;;;14.32;93.23
25420;BME280;13354;48.174;11.566;2023-05-10T06:49:49;95261.69;;;14.30;92.56
25420;BME280;13354;48.174;11.566;2023-05-10T06:52:14;95271.28;;;14.31;92.29
25420;BME280;13354;48.174;11.566;2023-05-10T06:54:40;95266.25;;;14.41;92.06
25420;BME280;13354;48.174;11.566;2023-05-10T06:57:05;95266.56;;;14.51;91.98
25420;BME280;13354;48.174;11.566;2023-05-10T06:59:30;95270.50;;;14.60;92.09
25420;BME280;13354;48.174;11.566;2023-05-10T07:01:55;95262.97;;;14.57;92.02
25420;BME280;13354;48.174;11.566;2023-05-10T07:04:21;95279.25;;;14.49;91.79
25420;BME280;13354;48.174;11.566;2023-05-10T07:06:46;95272.72;;;14.63;89.98
25420;BME280;13354;48.174;11.566;2023-05-10T07:09:11;95278.28;;;14.62;91.53
25420;BME280;13354;48.174;11.566;2023-05-10T07:11:36;95280.63;;;14.70;90.48
25420;BME280;13354;48.174;11.566;2023-05-10T07:14:02;95277.59;;;14.66;89.04
25420;BME280;13354;48.174;11.566;2023-05-10T07:16:27;95280.25;;;14.66;88.10
25420;BME280;13354;48.174;11.566;2023-05-10T07:18:53;95276.09;;;14.70;89.82
25420;BME280;13354;48.174;11.566;2023-05-10T07:21:18;95283.94;;;14.95;89.06
25420;BME280;13354;48.174;11.566;2023-05-10T07:23:43;95283.94;;;15.07;88.79
25420;BME280;13354;48.174;11.566;2023-05-10T07:26:09;95287.94;;;15.28;86.78
25420;BME280;13354;48.174;11.566;2023-05-10T07:28:35;95288.16;;;15.38;85.46
25420;BME280;13354;48.174;11.566;2023-05-10T07:31:02;95295.69;;;15.53;82.86
25420;BME280;13354;48.174;11.566;2023-05-10T07:33:27;95287.47;;;15.43;80.54
25420;BME280;13354;48.174;11.566;2023-05-10T07:35:52;95285.72;;;15.13;81.13
25420;BME280;13354;48.174;11.566;2023-05-10T07:38:18;95293.38;;;15.33;81.51
25420;BME280;13354;48.174;11.566;2023-05-10T07:40:43;95285.94;;;15.35;81.69
25420;BME280;13354;48.174;11.566;2023-05-10T07:43:08;95279.22;;;15.56;79.54
25420;BME280;13354;48.174;11.566;2023-05-10T07:45:33;95283.31;;;15.70;80.00
25420;BME280;13354;48.174;11.566;2023-05-10T07:47:59;95293.03;;;15.53;79.31
25420;BME280;13354;48.174;11.566;2023-05-10T07:50:24;95286.66;;;15.54;79.79
25420;BME280;13354;48.174;11.566;2023-05-10T07:52:50;95300.69;;;15.61;80.27
25420;BME280;13354;48.174;11.566;2023-05-10T07:55:15;95298.00;;;15.50;79.77
25420;BME280;13354;48.174;11.566;2023-05-10T07:57:41;95297.47;;;15.71;79.24
25420;BME280;13354;48.174;11.566;2023-05-10T08:00:06;95297.22;;;15.96;77.71
25420;BME280;13354;48.174;11.566;2023-05-10T08:02:33;95293.53;;;16.26;77.64
25420;BME280;13354;48.174;11.566;2023-05-10T08:04:59;95290.09;;;16.54;75.71
25420;BME280;13354;48.174;11.566;2023-05-10T08:07:24;95295.94;;;16.39;76.03
25420;BME280;13354;48.174;11.566;2023-05-10T08:09:49;95291.03;;;16.48;75.01
25420;BME280;13354;48.174;11.566;2023-05-10T08:12:14;95290.31;;;16.52;72.77
25420;BME280;13354;48.174;11.566;2023-05-10T08:14:40;95293.25;;;16.79;72.23
25420;BME280;13354;48.174;11.566;2023-05-10T08:17:05;95290.00;;;16.77;70.94
25420;BME280;13354;48.174;11.566;2023-05-10T08:19:30;95302.44;;;16.72;70.45
25420;BME280;13354;48.174;11.566;2023-05-10T08:21:56;95300.88;;;16.87;70.37
25420;BME280;13354;48.174;11.566;2023-05-10T08:24:22;95306.84;;;16.78;69.61
25420;BME280;13354;48.174;11.566;2023-05-10T08:26:47;95297.44;;;16.75;70.33
25420;BME280;13354;48.174;11.566;2023-05-10T08:29:13;95303.06;;;16.62;69.12
25420;BME280;13354;48.174;11.566;2023-05-10T08:31:38;95305.63;;;16.57;69.15
25420;BME280;13354;48.174;11.566;2023-05-10T08:34:04;95299.16;;;16.81;69.32
25420;BME280;13354;48.174;11.566;2023-05-10T08:36:29;95303.09;;;16.90;67.91
25420;BME280;13354;48.174;11.566;2023-05-10T08:38:54;95296.81;;;16.85;68.11
25420;BME280;13354;48.174;11.566;2023-05-10T08:41:20;95303.03;;;16.74;68.17
25420;BME280;13354;48.174;11.566;2023-05-10T08:43:46;95305.59;;;16.69;68.68
25420;BME280;13354;48.174;11.566;2023-05-10T08:46:12;95312.75;;;16.51;69.44
25420;BME280;13354;48.174;11.566;2023-05-10T08:48:40;95313.25;;;16.36;69.30
25420;BME280;13354;48.174;11.566;2023-05-10T08:51:06;95315.97;;;16.25;69.25
25420;BME280;13354;48.174;11.566;2023-05-10T08:53:33;95316.34;;;16.16;70.24
25420;BME280;13354;48.174;11.566;2023-05-10T08:56:01;95319.91;;;16.22;71.07
25420;BME280;13354;48.174;11.566;2023-05-10T08:58:27;95322.16;;;16.13;69.78
25420;BME280;13354;48.174;11.566;2023-05-10T09:00:52;95318.44;;;16.03;69.68
25420;BME280;13354;48.174;11.566;2023-05-10T09:03:18;95319.97;;;15.99;70.51
25420;BME280;13354;48.174;11.566;2023-05-10T09:05:43;95312.97;;;15.98;69.63
25420;BME280;13354;48.174;11.566;2023-05-10T09:08:09;95312.53;;;15.89;71.10
25420;BME280;13354;48.174;11.566;2023-05-10T09:10:35;95312.50;;;16.01;71.03
25420;BME280;13354;48.174;11.566;2023-05-10T09:13:01;95302.81;;;16.23;71.03
25420;BME280;13354;48.174;11.566;2023-05-10T09:15:27;95303.78;;;16.57;69.88
25420;BME280;13354;48.174;11.566;2023-05-10T09:17:52;95302.19;;;16.73;68.23
25420;BME280;13354;48.174;11.566;2023-05-10T09:20:17;95301.28;;;16.67;67.88
25420;BME280;13354;48.174;11.566;2023-05-10T09:22:43;95299.88;;;16.77;67.89
25420;BME280;13354;48.174;11.566;2023-05-10T09:25:09;95304.50;;;16.81;67.60
25420;BME280;13354;48.174;11.566;2023-05-10T09:27:35;95309.22;;;16.62;68.74
25420;BME280;13354;48.174;11.566;2023-05-10T09:30:00;95310.81;;;16.75;68.69
25420;BME280;13354;48.174;11.566;2023-05-10T09:32:36;95309.69;;;17.17;67.65
25420;BME280;13354;48.174;11.566;2023-05-10T09:35:08;95298.00;;;17.56;65.13
25420;BME280;13354;48.174;11.566;2023-05-10T09:37:33;95300.81;;;17.67;64.59
25420;BME280;13354;48.174;11.566;2023-05-10T09:39:58;95300.09;;;17.54;64.65
25420;BME280;13354;48.174;11.566;2023-05-10T09:42:24;95298.81;;;17.40;63.87
25420;BME280;13354;48.174;11.566;2023-05-10T09:44:49;95296.47;;;17.44;62.91
25420;BME280;13354;48.174;11.566;2023-05-10T09:47:17;95294.03;;;17.25;64.40
25420;BME280;13354;48.174;11.566;2023-05-10T09:49:44;95295.41;;;17.28;65.38
25420;BME280;13354;48.174;11.566;2023-05-10T09:52:09;95294.94;;;17.31;65.38
25420;BME280;13354;48.174;11.566;2023-05-10T09:54:35;95299.53;;;17.52;62.50
25420;BME280;13354;48.174;11.566;2023-05-10T09:57:01;95296.84;;;17.52;60.21
25420;BME280;13354;48.174;11.566;2023-05-10T09:59:26;95291.03;;;17.38;61.87
25420;BME280;13354;48.174;11.566;2023-05-10T10:01:55;95289.16;;;17.56;60.46
25420;BME280;13354;48.174;11.566;2023-05-10T10:04:21;95288.28;;;17.50;60.91
25420;BME280;13354;48.174;11.566;2023-05-10T10:06:46;95287.22;;;17.51;61.32
25420;BME280;13354;48.174;11.566;2023-05-10T10:09:22;95291.16;;;17.66;61.24
25420;BME280;13354;48.174;11.566;2023-05-10T10:11:48;95285.19;;;17.75;60.06
25420;BME280;13354;48.174;11.566;2023-05-10T10:14:14;95293.75;;;17.94;58.96
25420;BME280;13354;48.174;11.566;2023-05-10T10:16:39;95286.25;;;17.96;59.08
25420;BME280;13354;48.174;11.566;2023-05-10T10:19:04;95287.00;;;17.92;58.55
25420;BME280;13354;48.174;11.566;2023-05-10T10:21:31;95286.16;;;17.86;58.82
25420;BME280;13354;48.174;11.566;2023-05-10T10:23:56;95287.75;;;17.70;59.65
25420;BME280;13354;48.174;11.566;2023-05-10T10:26:21;95293.53;;;17.62;60.00
25420;BME280;13354;48.174;11.566;2023-05-10T10:28:49;95288.97;;;17.62;59.44
25420;BME280;13354;48.174;11.566;2023-05-10T10:36:10;95284.81;;;17.89;58.33
25420;BME280;13354;48.174;11.566;2023-05-10T10:41:10;95279.50;;;18.10;59.29
25420;BME280;13354;48.174;11.566;2023-05-10T10:43:35;95278.13;;;18.08;59.16
25420;BME280;13354;48.174;11.566;2023-05-10T10:48:32;95282.88;;;18.01;60.14
25420;BME280;13354;48.174;11.566;2023-05-10T10:50:57;95276.56;;;17.90;60.81
25420;BME280;13354;48.174;11.566;2023-05-10T10:53:25;95273.41;;;17.76;59.68
25420;BME280;13354;48.174;11.566;2023-05-10T10:55:51;95281.19;;;17.78;58.30
25420;BME280;13354;48.174;11.566;2023-05-10T10:58:30;95273.06;;;17.73;58.58
25420;BME280;13354;48.174;11.566;2023-05-10T11:01:15;95284.34;;;17.75;58.18
25420;BME280;13354;48.174;11.566;2023-05-10T11:03:41;95269.50;;;17.67;57.92
25420;BME280;13354;48.174;11.566;2023-05-10T11:06:28;95274.47;;;17.58;59.19
25420;BME280;13354;48.174;11.566;2023-05-10T11:08:53;95270.66;;;17.54;59.85
25420;BME280;13354;48.174;11.566;2023-05-10T11:11:19;95268.94;;;17.65;59.67
25420;BME280;13354;48.174;11.566;2023-05-10T11:13:46;95270.00;;;17.64;59.44
25420;BME280;13354;48.174;11.566;2023-05-10T11:16:18;95272.84;;;17.57;60.12
25420;BME280;13354;48.174;11.566;2023-05-10T11:21:21;95278.69;;;17.54;60.12
25420;BME280;13354;48.174;11.566;2023-05-10T11:26:11;95281.22;;;17.61;58.71
25420;BME280;13354;48.174;11.566;2023-05-10T11:28:43;95285.13;;;17.53;58.60
25420;BME280;13354;48.174;11.566;2023-05-10T11:31:09;95297.28;;;17.44;60.74
25420;BME280;13354;48.174;11.566;2023-05-10T11:36:16;95297.88;;;17.01;64.17
25420;BME280;13354;48.174;11.566;2023-05-10T11:38:42;95305.47;;;16.75;66.27
25420;BME280;13354;48.174;11.566;2023-05-10T11:41:08;95306.22;;;16.59;67.65
25420;BME280;13354;48.174;11.566;2023-05-10T11:43:33;95302.47;;;16.60;67.98
25420;BME280;13354;48.174;11.566;2023-05-10T11:45:59;95319.94;;;16.51;68.94
25420;BME280;13354;48.174;11.566;2023-05-10T11:48:24;95315.59;;;16.33;70.00
25420;BME280;13354;48.174;11.566;2023-05-10T11:50:49;95326.06;;;16.23;71.48
25420;BME280;13354;48.174;11.566;2023-05-10T11:53:15;95337.56;;;16.11;73.01
25420;BME280;13354;48.174;11.566;2023-05-10T11:55:40;95323.94;;;15.73;73.31
25420;BME280;13354;48.174;11.566;2023-05-10T11:58:05;95322.59;;;15.63;73.44
25420;BME280;13354;48.174;11.566;2023-05-10T12:00:30;95328.84;;;15.45;74.15
25420;BME280;13354;48.174;11.566;2023-05-10T12:02:56;95327.94;;;15.40;74.25
25420;BME280;13354;48.174;11.566;2023-05-10T12:05:21;95331.06;;;15.37;74.70
25420;BME280;13354;48.174;11.566;2023-05-10T12:07:47;95331.28;;;15.35;75.46
25420;BME280;13354;48.174;11.566;2023-05-10T12:10:12;95336.03;;;15.33;75.41
25420;BME280;13354;48.174;11.566;2023-05-10T12:12:45;95334.88;;;15.17;77.23
25420;BME280;13354;48.174;11.566;2023-05-10T12:17:38;95337.19;;;15.14;78.62
25420;BME280;13354;48.174;11.566;2023-05-10T12:20:23;95337.72;;;15.04;78.06
25420;BME280;13354;48.174;11.566;2023-05-10T12:22:50;95353.34;;;15.01;79.13
25420;BME280;13354;48.174;11.566;2023-05-10T12:25:16;95356.34;;;14.92;81.38
25420;BME280;13354;48.174;11.566;2023-05-10T12:27:47;95367.88;;;14.74;83.10
25420;BME280;13354;48.174;11.566;2023-05-10T12:30:12;95364.53;;;14.79;84.73
25420;BME280;13354;48.174;11.566;2023-05-10T12:32:38;95375.94;;;14.68;86.34
25420;BME280;13354;48.174;11.566;2023-05-10T12:35:04;95368.19;;;14.66;87.33
25420;BME280;13354;48.174;11.566;2023-05-10T12:37:29;95375.38;;;14.66;87.07
25420;BME280;13354;48.174;11.566;2023-05-10T12:39:54;95373.88;;;14.70;88.08
25420;BME280;13354;48.174;11.566;2023-05-10T12:42:20;95379.84;;;14.65;89.59
25420;BME280;13354;48.174;11.566;2023-05-10T12:44:45;95378.03;;;14.66;88.06
25420;BME280;13354;48.174;11.566;2023-05-10T12:47:10;95377.56;;;14.69;86.63
25420;BME280;13354;48.174;11.566;2023-05-10T12:49:36;95380.91;;;14.64;87.50
25420;BME280;13354;48.174;11.566;2023-05-10T12:52:01;95380.69;;;14.66;87.17
25420;BME280;13354;48.174;11.566;2023-05-10T12:54:26;95384.47;;;14.58;89.12
25420;BME280;13354;48.174;11.566;2023-05-10T12:56:52;95379.22;;;14.70;89.26
25420;BME280;13354;48.174;11.566;2023-05-10T12:59:17;95378.59;;;14.68;85.81
25420;BME280;13354;48.174;11.566;2023-05-10T13:01:43;95380.91;;;14.64;88.21
25420;BME280;13354;48.174;11.566;2023-05-10T13:04:08;95378.31;;;14.58;88.61
25420;BME280;13354;48.174;11.566;2023-05-10T13:06:33;95390.63;;;14.59;87.06
25420;BME280;13354;48.174;11.566;2023-05-10T13:08:58;95388.75;;;14.59;86.53
25420;BME280;13354;48.174;11.566;2023-05-10T13:11:23;95393.19;;;14.65;85.16
25420;BME280;13354;48.174;11.566;2023-05-10T13:13:49;95390.50;;;14.65;84.39
25420;BME280;13354;48.174;11.566;2023-05-10T13:16:14;95391.84;;;14.74;85.18
25420;BME280;13354;48.174;11.566;2023-05-10T13:18:39;95397.81;;;14.58;84.94
25420;BME280;13354;48.174;11.566;2023-05-10T13:21:04;95389.22;;;14.56;86.79
25420;BME280;13354;48.174;11.566;2023-05-10T13:23:30;95388.53;;;14.61;84.99
25420;BME280;13354;48.174;11.566;2023-05-10T13:25:55;95391.00;;;14.62;83.48
25420;BME280;13354;48.174;11.566;2023-05-10T13:28:21;95393.09;;;14.72;82.21